createdAt,value
2023-02-27T00:00:04.144Z,100.00
2023-02-27T00:07:39.578Z,100.00
2023-02-27T00:15:16.977Z,100.00
2023-02-27T00:22:52.585Z,100.00
2023-02-27T00:30:26.817Z,100.00
2023-02-27T00:45:53.548Z,100.00
2023-02-27T00:53:28.967Z,100.00
2023-02-27T01:01:03.348Z,100.00
2023-02-27T01:08:38.865Z,100.00
2023-02-27T01:16:12.865Z,100.00
2023-02-27T01:23:48.039Z,100.00
2023-02-27T01:31:21.877Z,100.00
2023-02-27T01:38:57.252Z,100.00
2023-02-27T01:46:32.698Z,100.00
2023-02-27T01:54:11.590Z,100.00
2023-02-27T02:01:46.051Z,100.00
2023-02-27T02:09:22.878Z,100.00
2023-02-27T02:17:10.159Z,100.00
2023-02-27T02:34:03.272Z,100.00
2023-02-27T02:41:52.746Z,100.00
2023-02-27T02:49:34.553Z,100.00
2023-02-27T02:57:15.306Z,100.00
2023-02-27T03:04:54.746Z,100.00
2023-02-27T03:12:33.447Z,100.00
2023-02-27T03:20:10.342Z,100.00
2023-02-27T03:27:51.313Z,100.00
2023-02-27T03:35:31.431Z,100.00
2023-02-27T03:43:18.162Z,100.00
2023-02-27T03:50:52.260Z,100.00
2023-02-27T03:58:27.644Z,100.00
2023-02-27T04:06:21.627Z,100.00
2023-02-27T04:14:16.374Z,100.00
2023-02-27T04:22:01.481Z,100.00
2023-02-27T04:29:46.481Z,100.00
2023-02-27T04:37:27.283Z,100.00
2023-02-27T04:45:06.556Z,100.00
2023-02-27T04:52:44.920Z,100.00
2023-02-27T05:00:24.687Z,100.00
2023-02-27T05:08:03.590Z,100.00
2023-02-27T05:15:44.386Z,100.00
2023-02-27T05:23:26.621Z,100.00
2023-02-27T05:31:08.548Z,100.00
2023-02-27T05:38:45.869Z,100.00
2023-02-27T05:54:23.716Z,100.00
2023-02-27T06:01:58.905Z,100.00
2023-02-27T06:09:32.989Z,100.00
2023-02-27T06:17:08.537Z,100.00
2023-02-27T06:24:42.465Z,100.00
2023-02-27T06:32:17.757Z,100.00
2023-02-27T06:39:52.093Z,100.00
2023-02-27T06:47:27.408Z,100.00
2023-02-27T06:55:01.275Z,100.00
2023-02-27T07:02:36.794Z,100.00
2023-02-27T07:10:14.703Z,100.00
2023-02-27T07:17:50.170Z,100.00
2023-02-27T07:25:24.260Z,100.00
2023-02-27T07:32:59.419Z,100.00
2023-02-27T07:48:26.619Z,100.00
2023-02-27T07:56:00.501Z,100.00
2023-02-27T08:03:35.616Z,100.00
2023-02-27T08:11:09.521Z,100.00
2023-02-27T08:18:44.807Z,100.00
2023-02-27T08:26:18.818Z,100.00
2023-02-27T08:34:04.565Z,100.00
2023-02-27T08:41:43.164Z,100.00
2023-02-27T08:49:20.589Z,100.00
2023-02-27T08:56:55.557Z,100.00
2023-02-27T09:04:31.193Z,100.00
2023-02-27T09:12:05.697Z,100.00
2023-02-27T09:19:41.277Z,100.00
2023-02-27T09:27:15.254Z,100.00
2023-02-27T09:34:50.622Z,100.00
2023-02-27T09:42:27.336Z,100.00
2023-02-27T09:50:04.424Z,100.00
2023-02-27T09:57:45.272Z,100.00
2023-02-27T10:05:32.307Z,100.00
2023-02-27T10:13:22.567Z,100.00
2023-02-27T10:21:00.388Z,100.00
2023-02-27T10:28:34.997Z,100.00
2023-02-27T10:36:18.059Z,100.00
2023-02-27T10:44:00.612Z,100.00
2023-02-27T10:51:38.293Z,87.65
2023-02-27T10:59:20.626Z,82.91
2023-02-27T11:06:57.410Z,72.75
2023-02-27T11:14:34.035Z,72.24
2023-02-27T11:22:16.600Z,67.06
2023-02-27T11:29:58.921Z,62.30
2023-02-27T11:37:36.879Z,59.44
2023-02-27T11:46:28.222Z,58.82
2023-02-27T12:01:39.892Z,60.45
2023-02-27T12:09:36.736Z,60.63
2023-02-27T12:17:20.641Z,63.45
2023-02-27T12:25:03.677Z,58.82
2023-02-27T12:32:44.415Z,58.71
2023-02-27T12:40:21.875Z,54.66
2023-02-27T12:48:05.199Z,52.72
2023-02-27T12:55:48.794Z,55.07
2023-02-27T13:03:28.607Z,55.30
2023-02-27T13:11:14.053Z,54.72
2023-02-27T13:18:52.455Z,57.29
2023-02-27T13:26:32.628Z,55.09
2023-02-27T13:34:15.660Z,56.31
2023-02-27T13:41:51.028Z,55.68
2023-02-27T13:57:26.078Z,51.37
2023-02-27T14:05:03.525Z,55.37
2023-02-27T14:12:48.059Z,53.03
2023-02-27T14:20:51.872Z,54.32
2023-02-27T14:28:32.612Z,56.23
2023-02-27T14:36:10.609Z,54.45
2023-02-27T14:43:55.299Z,53.78
2023-02-27T14:51:33.428Z,51.94
2023-02-27T14:59:23.583Z,49.15
2023-02-27T15:06:59.059Z,50.21
2023-02-27T15:14:38.145Z,51.86
2023-02-27T15:22:36.132Z,53.01
2023-02-27T15:30:22.872Z,53.00
2023-02-27T15:37:58.232Z,53.42
2023-02-27T15:45:36.331Z,53.16
2023-02-27T15:53:14.914Z,53.43
2023-02-27T16:00:51.952Z,54.94
2023-02-27T16:08:26.433Z,57.25
2023-02-27T16:16:03.836Z,58.03
2023-02-27T16:23:37.911Z,58.65
2023-02-27T16:39:16.485Z,61.22
2023-02-27T16:46:51.981Z,61.29
2023-02-27T16:54:25.982Z,61.28
2023-02-27T17:02:03.827Z,60.34
2023-02-27T17:09:37.795Z,61.87
2023-02-27T17:17:13.044Z,63.43
2023-02-27T17:24:47.211Z,66.54
2023-02-27T17:32:22.511Z,69.81
2023-02-27T17:39:56.521Z,71.00
2023-02-27T17:47:31.842Z,71.30
2023-02-27T18:02:59.447Z,73.55
2023-02-27T18:10:33.278Z,74.83
2023-02-27T18:18:09.153Z,74.76
2023-02-27T18:25:43.012Z,75.59
2023-02-27T18:33:19.590Z,77.86
2023-02-27T18:40:53.856Z,77.30
2023-02-27T18:48:29.267Z,78.79
2023-02-27T18:56:05.020Z,79.74
2023-02-27T19:03:40.461Z,80.03
2023-02-27T19:19:15.582Z,84.07
2023-02-27T19:26:50.514Z,83.47
2023-02-27T19:42:18.165Z,85.47
2023-02-27T19:49:53.483Z,85.75
2023-02-27T19:57:27.985Z,85.89
2023-02-27T20:05:03.699Z,86.85
2023-02-27T20:12:37.528Z,87.82
2023-02-27T20:20:14.862Z,88.50
2023-02-27T20:35:42.725Z,90.40
2023-02-27T20:43:16.676Z,90.71
2023-02-27T20:50:52.211Z,91.58
2023-02-27T20:58:26.440Z,92.52
2023-02-27T21:06:01.826Z,92.70
2023-02-27T21:13:36.141Z,93.01
2023-02-27T21:21:14.655Z,94.33
2023-02-27T21:28:52.563Z,94.89
2023-02-27T21:36:29.554Z,95.75
2023-02-27T21:44:05.517Z,96.30
2023-02-27T21:51:41.415Z,96.91
2023-02-27T21:59:16.990Z,97.89
2023-02-27T22:06:53.448Z,98.12
2023-02-27T22:14:28.542Z,100.00
2023-02-27T22:22:03.718Z,100.00
2023-02-27T22:29:38.810Z,100.00
2023-02-27T22:37:16.260Z,100.00
2023-02-27T22:44:50.380Z,100.00
2023-02-27T22:52:25.679Z,100.00
2023-02-27T22:59:59.619Z,100.00
2023-02-27T23:07:34.966Z,100.00
2023-02-27T23:15:10.860Z,100.00
2023-02-27T23:22:46.511Z,100.00
2023-02-27T23:30:20.498Z,100.00
2023-02-27T23:37:57.122Z,100.00
2023-02-27T23:53:25.041Z,100.00
